createdAt,value
2023-12-30T00:00:30.557Z,3.93
2023-12-30T00:01:30.580Z,4.23
2023-12-30T00:02:30.529Z,3.56
2023-12-30T00:03:30.522Z,4.42
2023-12-30T00:04:30.579Z,4.14
2023-12-30T00:05:30.519Z,4.09
2023-12-30T00:06:30.475Z,4.01
2023-12-30T00:07:30.486Z,3.81
2023-12-30T00:08:30.421Z,4.00
2023-12-30T00:09:30.422Z,3.96
2023-12-30T00:10:30.406Z,3.77
2023-12-30T00:11:30.447Z,3.66
2023-12-30T00:12:30.372Z,4.29
2023-12-30T00:13:30.362Z,3.78
2023-12-30T00:14:30.394Z,3.83
2023-12-30T00:15:30.347Z,4.09
2023-12-30T00:16:30.307Z,3.88
2023-12-30T00:17:30.306Z,4.06
2023-12-30T00:18:30.346Z,3.70
2023-12-30T00:19:30.305Z,4.43
2023-12-30T00:20:30.245Z,3.67
2023-12-30T00:21:30.213Z,4.32
2023-12-30T00:22:30.273Z,4.03
2023-12-30T00:23:37.401Z,3.49
2023-12-30T00:24:30.180Z,4.22
2023-12-30T00:25:30.185Z,4.12
2023-12-30T00:26:30.143Z,3.63
2023-12-30T00:27:30.120Z,3.81
2023-12-30T00:28:30.147Z,3.76
2023-12-30T00:29:30.093Z,3.96
2023-12-30T00:30:30.166Z,3.92
2023-12-30T00:31:30.080Z,4.04
2023-12-30T00:32:30.087Z,3.56
2023-12-30T00:33:30.577Z,4.02
2023-12-30T00:34:30.130Z,4.23
2023-12-30T00:35:30.015Z,3.69
2023-12-30T00:36:30.066Z,3.88
2023-12-30T00:37:30.011Z,3.53
2023-12-30T00:38:30.041Z,3.91
2023-12-30T00:39:29.941Z,3.79
2023-12-30T00:40:30.032Z,3.53
2023-12-30T00:41:29.908Z,4.03
2023-12-30T00:42:29.897Z,3.71
2023-12-30T00:43:29.964Z,3.88
2023-12-30T00:44:30.686Z,4.29
2023-12-30T00:45:29.833Z,3.69
2023-12-30T00:46:29.996Z,3.80
2023-12-30T00:47:29.834Z,4.04
2023-12-30T00:48:29.838Z,3.55
2023-12-30T00:49:29.915Z,3.67
2023-12-30T00:50:29.782Z,4.09
2023-12-30T00:51:29.742Z,3.70
2023-12-30T00:52:29.758Z,3.57
2023-12-30T00:53:29.727Z,3.66
2023-12-30T00:54:35.349Z,3.59
2023-12-30T00:55:30.742Z,3.64
2023-12-30T00:56:29.686Z,3.68
2023-12-30T00:57:29.670Z,4.15
2023-12-30T00:58:29.753Z,4.12
2023-12-30T00:59:30.796Z,3.72
2023-12-30T01:00:29.638Z,3.47
2023-12-30T01:01:29.650Z,4.10
2023-12-30T01:02:29.586Z,3.77
2023-12-30T01:03:29.586Z,3.83
2023-12-30T01:04:30.383Z,3.12
2023-12-30T01:05:29.576Z,3.67
2023-12-30T01:06:29.530Z,3.93
2023-12-30T01:07:29.545Z,4.19
2023-12-30T01:08:29.532Z,3.99
2023-12-30T01:09:29.600Z,3.45
2023-12-30T01:10:29.515Z,3.46
2023-12-30T01:11:29.434Z,3.61
2023-12-30T01:12:29.411Z,3.96
2023-12-30T01:13:29.443Z,4.07
2023-12-30T01:14:29.393Z,3.60
2023-12-30T01:15:29.371Z,3.99
2023-12-30T01:16:29.371Z,3.71
2023-12-30T01:17:29.434Z,3.76
2023-12-30T01:18:29.361Z,3.64
2023-12-30T01:19:29.346Z,3.44
2023-12-30T01:20:29.310Z,3.42
2023-12-30T01:21:29.255Z,3.71
2023-12-30T01:22:29.324Z,3.99
2023-12-30T01:23:29.257Z,3.52
2023-12-30T01:24:29.215Z,3.86
2023-12-30T01:25:29.235Z,3.36
2023-12-30T01:26:29.188Z,3.60
2023-12-30T01:27:29.171Z,3.83
2023-12-30T01:28:29.232Z,4.38
2023-12-30T01:29:29.144Z,3.72
2023-12-30T01:30:29.137Z,3.83
2023-12-30T01:31:29.161Z,3.61
2023-12-30T01:32:29.110Z,3.42
2023-12-30T01:33:29.183Z,3.92
2023-12-30T01:34:29.226Z,3.65
2023-12-30T01:35:29.075Z,3.29
2023-12-30T01:36:29.017Z,3.46
2023-12-30T01:37:29.089Z,3.73
2023-12-30T01:38:28.976Z,3.51
2023-12-30T01:39:28.963Z,3.42
2023-12-30T01:40:29.093Z,3.60
2023-12-30T01:41:28.909Z,4.20
2023-12-30T01:42:28.907Z,3.27
2023-12-30T01:43:28.993Z,3.46
2023-12-30T01:44:28.870Z,3.43
2023-12-30T01:45:28.870Z,3.54
2023-12-30T01:46:29.009Z,3.57
2023-12-30T01:47:28.905Z,3.64
2023-12-30T01:48:28.891Z,2.90
2023-12-30T01:49:28.790Z,3.59
2023-12-30T01:50:28.752Z,3.35
2023-12-30T01:51:28.724Z,3.66
2023-12-30T01:52:28.768Z,3.30
2023-12-30T01:53:28.716Z,3.24
2023-12-30T01:54:28.690Z,3.83
2023-12-30T01:55:28.744Z,3.82
2023-12-30T01:56:28.656Z,3.63
2023-12-30T01:57:28.628Z,3.72
2023-12-30T01:58:28.720Z,3.49
2023-12-30T01:59:28.603Z,3.70
2023-12-30T02:00:28.604Z,3.48
2023-12-30T02:01:28.688Z,3.19
2023-12-30T02:02:28.571Z,3.57
2023-12-30T02:03:28.565Z,3.19
2023-12-30T02:04:28.681Z,3.88
2023-12-30T02:05:28.575Z,3.23
2023-12-30T02:06:28.528Z,3.90
2023-12-30T02:07:28.573Z,3.19
2023-12-30T02:08:28.476Z,3.69
2023-12-30T02:09:28.482Z,3.56
2023-12-30T02:10:28.492Z,3.50
2023-12-30T02:11:28.421Z,3.49
2023-12-30T02:12:28.439Z,3.09
2023-12-30T02:13:28.510Z,3.24
2023-12-30T02:14:28.380Z,3.95
2023-12-30T02:15:28.410Z,3.33
2023-12-30T02:16:28.391Z,2.93
2023-12-30T02:17:28.354Z,3.14
2023-12-30T02:18:28.467Z,3.59
2023-12-30T02:19:28.336Z,3.65
2023-12-30T02:20:28.279Z,3.07
2023-12-30T02:21:28.278Z,3.77
2023-12-30T02:22:28.317Z,3.43
2023-12-30T02:23:28.232Z,3.76
2023-12-30T02:57:47.897Z,2.92
2023-12-30T02:58:28.283Z,3.13
2023-12-30T02:59:27.241Z,3.01
2023-12-30T03:00:27.234Z,3.10
2023-12-30T03:01:27.459Z,2.82
2023-12-30T03:02:27.187Z,3.21
2023-12-30T03:03:27.180Z,3.45
2023-12-30T03:04:27.267Z,3.02
2023-12-30T03:05:27.169Z,2.84
2023-12-30T03:06:27.132Z,3.39
2023-12-30T03:07:27.153Z,3.15
2023-12-30T03:08:27.075Z,2.97
2023-12-30T03:09:27.087Z,3.03
2023-12-30T03:10:27.132Z,3.10
2023-12-30T03:11:27.204Z,2.78
2023-12-30T03:12:27.008Z,2.98
2023-12-30T03:13:27.002Z,3.32
2023-12-30T03:14:26.988Z,3.01
2023-12-30T03:15:26.961Z,3.41
2023-12-30T03:16:27.033Z,3.39
2023-12-30T03:17:27.003Z,3.08
2023-12-30T03:18:27.011Z,3.08
2023-12-30T03:19:26.939Z,2.96
2023-12-30T03:20:26.902Z,3.05
2023-12-30T03:21:26.871Z,3.25
2023-12-30T03:22:26.916Z,3.46
2023-12-30T03:23:26.839Z,3.22
2023-12-30T03:24:26.891Z,2.73
2023-12-30T03:25:26.855Z,3.11
2023-12-30T03:26:26.798Z,2.68
2023-12-30T03:27:26.779Z,2.83
2023-12-30T03:28:26.858Z,2.91
2023-12-30T03:29:26.748Z,3.51
2023-12-30T03:30:26.742Z,2.78
2023-12-30T03:31:26.799Z,2.96
2023-12-30T03:32:26.711Z,3.12
2023-12-30T03:33:26.695Z,2.72
2023-12-30T03:34:26.712Z,2.95
2023-12-30T03:35:26.633Z,3.33
2023-12-30T03:36:26.629Z,2.77
2023-12-30T03:37:26.685Z,2.91
2023-12-30T03:38:26.594Z,3.04
2023-12-30T03:39:26.597Z,2.66
2023-12-30T03:40:26.602Z,2.83
2023-12-30T03:41:26.564Z,3.25
2023-12-30T03:42:26.530Z,3.41
2023-12-30T03:43:26.545Z,3.05
2023-12-30T03:44:26.505Z,2.83
2023-12-30T03:45:26.464Z,3.04
2023-12-30T03:46:26.523Z,2.99
2023-12-30T03:47:26.496Z,2.97
2023-12-30T03:48:26.597Z,2.90
2023-12-30T03:49:26.427Z,2.99
2023-12-30T03:50:26.386Z,2.90
2023-12-30T03:51:26.355Z,3.07
2023-12-30T03:52:26.404Z,2.74
2023-12-30T03:53:26.325Z,3.22
2023-12-30T03:54:26.325Z,2.96
2023-12-30T03:55:26.375Z,3.11
2023-12-30T03:56:26.274Z,3.09
2023-12-30T03:57:26.243Z,2.72
2023-12-30T03:58:26.273Z,2.83
2023-12-30T03:59:26.216Z,2.68
2023-12-30T04:00:26.194Z,2.73
2023-12-30T04:01:26.291Z,2.99
2023-12-30T04:02:26.176Z,3.09
2023-12-30T04:03:26.138Z,2.66
2023-12-30T04:04:26.181Z,2.82
2023-12-30T04:05:26.170Z,2.43
2023-12-30T04:06:26.082Z,2.42
2023-12-30T04:07:26.129Z,2.85
2023-12-30T04:08:26.055Z,2.92
2023-12-30T04:09:26.069Z,2.65
2023-12-30T04:10:26.165Z,2.51
2023-12-30T04:11:26.025Z,2.85
2023-12-30T04:12:26.006Z,2.65
2023-12-30T04:13:26.058Z,2.79
2023-12-30T04:14:26.002Z,2.79
2023-12-30T04:15:25.969Z,3.03
2023-12-30T04:16:25.962Z,3.10
2023-12-30T04:17:25.967Z,2.61
2023-12-30T04:18:26.035Z,2.64
2023-12-30T04:19:26.036Z,2.47
2023-12-30T04:20:25.924Z,2.75
2023-12-30T04:21:25.894Z,2.63
2023-12-30T04:22:25.925Z,2.65
2023-12-30T04:23:25.878Z,2.96
2023-12-30T04:24:25.889Z,2.49
2023-12-30T04:25:25.919Z,2.53
2023-12-30T04:26:25.831Z,2.75
2023-12-30T04:27:25.879Z,2.71
2023-12-30T04:28:25.848Z,2.67
2023-12-30T04:29:25.779Z,2.34
2023-12-30T04:30:25.801Z,2.62
2023-12-30T04:31:33.041Z,3.02
2023-12-30T04:32:33.010Z,2.63
2023-12-30T04:33:33.081Z,2.89
2023-12-30T04:34:33.003Z,2.33
2023-12-30T04:35:33.031Z,2.54
2023-12-30T04:36:33.013Z,2.46
2023-12-30T04:37:33.064Z,2.60
2023-12-30T04:38:32.941Z,2.62
2023-12-30T04:39:33.010Z,2.47
2023-12-30T04:40:33.009Z,2.30
2023-12-30T04:41:32.923Z,2.88
2023-12-30T04:42:32.910Z,2.69
2023-12-30T04:43:32.966Z,2.21
2023-12-30T04:44:32.908Z,2.26
2023-12-30T04:45:32.917Z,2.57
2023-12-30T04:46:33.044Z,2.24
2023-12-30T04:47:32.917Z,2.25
2023-12-30T04:48:32.904Z,2.36
2023-12-30T04:49:32.940Z,2.71
2023-12-30T04:50:32.886Z,2.69
2023-12-30T04:51:32.889Z,2.89
2023-12-30T04:52:32.922Z,2.56
2023-12-30T04:53:32.887Z,2.32
2023-12-30T04:54:34.129Z,2.43
2023-12-30T04:55:32.979Z,2.37
2023-12-30T04:56:32.857Z,2.67
2023-12-30T04:57:32.857Z,2.55
2023-12-30T04:58:32.925Z,2.69
2023-12-30T04:59:45.441Z,2.36
2023-12-30T05:00:32.891Z,2.64
2023-12-30T05:01:32.996Z,3.13
2023-12-30T05:02:32.851Z,2.53
2023-12-30T05:03:32.938Z,2.05
2023-12-30T05:04:35.424Z,2.06
2023-12-30T05:05:33.044Z,2.32
2023-12-30T05:06:33.018Z,2.09
2023-12-30T05:07:33.107Z,2.49
2023-12-30T05:08:33.034Z,2.56
2023-12-30T05:09:33.062Z,2.65
2023-12-30T05:10:33.073Z,2.41
2023-12-30T05:11:33.072Z,1.91
2023-12-30T05:12:33.082Z,2.29
2023-12-30T05:13:33.142Z,2.23
2023-12-30T05:14:33.096Z,2.43
2023-12-30T05:15:33.099Z,2.21
2023-12-30T05:16:33.141Z,2.09
2023-12-30T05:17:33.224Z,2.22
2023-12-30T05:18:33.147Z,2.50
2023-12-30T05:19:33.179Z,2.32
2023-12-30T05:20:33.171Z,2.18
2023-12-30T05:21:33.176Z,2.24
2023-12-30T05:22:33.309Z,2.70
2023-12-30T05:23:33.194Z,2.22
2023-12-30T05:24:33.237Z,2.23
2023-12-30T05:25:33.284Z,2.66
2023-12-30T05:26:33.248Z,2.19
2023-12-30T05:27:33.269Z,2.12
2023-12-30T05:28:33.377Z,2.20
2023-12-30T05:29:33.276Z,2.06
2023-12-30T05:30:33.310Z,2.32
2023-12-30T05:31:33.323Z,2.27
2023-12-30T05:32:33.307Z,2.41
2023-12-30T05:33:33.398Z,2.48
2023-12-30T05:34:33.439Z,1.99
2023-12-30T05:35:33.350Z,2.28
2023-12-30T05:36:33.363Z,2.06
2023-12-30T05:37:33.410Z,2.35
2023-12-30T05:38:33.370Z,2.06
2023-12-30T05:39:33.361Z,2.15
2023-12-30T05:40:33.491Z,2.30
2023-12-30T05:41:33.390Z,1.81
2023-12-30T05:42:33.426Z,2.33
2023-12-30T05:43:33.422Z,2.65
2023-12-30T05:44:33.431Z,2.05
2023-12-30T05:45:33.513Z,2.02
2023-12-30T05:46:33.471Z,2.33
2023-12-30T05:47:33.506Z,2.37
2023-12-30T05:48:33.539Z,2.10
2023-12-30T05:49:33.526Z,2.13
2023-12-30T05:50:33.483Z,1.91
2023-12-30T05:51:33.488Z,2.07
2023-12-30T05:52:33.597Z,2.00
2023-12-30T05:53:33.490Z,2.50
2023-12-30T05:54:33.480Z,2.20
2023-12-30T05:55:33.559Z,2.05
2023-12-30T05:56:33.512Z,1.93
2023-12-30T05:57:35.242Z,2.09
2023-12-30T05:58:33.540Z,1.89
2023-12-30T05:59:33.508Z,2.20
2023-12-30T06:00:33.588Z,2.10
2023-12-30T06:01:33.611Z,1.90
2023-12-30T06:02:33.487Z,2.45
2023-12-30T06:03:33.514Z,2.07
2023-12-30T06:04:33.521Z,2.20
2023-12-30T06:05:33.478Z,2.47
2023-12-30T06:06:33.484Z,1.63
2023-12-30T06:07:33.464Z,1.72
2023-12-30T06:08:33.442Z,1.67
2023-12-30T06:09:33.445Z,2.06
2023-12-30T06:10:33.517Z,1.99
2023-12-30T06:11:33.458Z,2.26
2023-12-30T06:12:33.448Z,2.15
2023-12-30T06:13:33.445Z,1.97
2023-12-30T06:14:33.422Z,2.12
2023-12-30T06:15:33.425Z,2.06
2023-12-30T06:16:33.489Z,2.08
2023-12-30T06:17:33.514Z,1.99
2023-12-30T06:18:33.680Z,1.97
2023-12-30T06:19:33.403Z,1.77
2023-12-30T06:20:33.400Z,1.86
2023-12-30T06:21:33.438Z,2.33
2023-12-30T06:22:33.431Z,1.86
2023-12-30T06:23:33.398Z,2.24
2023-12-30T06:24:33.385Z,2.14
2023-12-30T06:25:33.460Z,2.09
2023-12-30T06:26:33.399Z,1.90
2023-12-30T06:27:33.388Z,2.09
2023-12-30T06:28:33.439Z,2.15
2023-12-30T06:29:35.398Z,1.80
2023-12-30T06:30:33.433Z,2.09
2023-12-30T06:31:33.393Z,1.87
2023-12-30T06:32:33.462Z,1.83
2023-12-30T06:33:33.460Z,2.18
2023-12-30T06:34:34.146Z,2.24
2023-12-30T06:35:33.386Z,1.98
2023-12-30T06:36:33.353Z,1.72
2023-12-30T06:37:33.405Z,1.80
2023-12-30T06:38:33.366Z,1.98
2023-12-30T06:39:33.352Z,2.05
2023-12-30T06:40:33.395Z,2.36
2023-12-30T06:41:33.363Z,2.32
2023-12-30T06:42:33.351Z,1.90
2023-12-30T06:43:33.413Z,1.72
2023-12-30T06:44:33.324Z,1.96
2023-12-30T06:45:33.316Z,2.12
2023-12-30T06:46:33.342Z,1.96
2023-12-30T06:47:33.312Z,2.21
2023-12-30T06:48:33.309Z,2.06
2023-12-30T06:49:33.481Z,2.12
2023-12-30T06:50:33.298Z,1.61
2023-12-30T06:51:33.344Z,2.06
2023-12-30T06:52:33.375Z,2.02
2023-12-30T06:53:33.339Z,2.30
2023-12-30T06:54:33.373Z,1.80
2023-12-30T06:55:38.813Z,2.09
2023-12-30T06:56:34.435Z,2.50
2023-12-30T06:57:33.374Z,2.06
2023-12-30T06:58:33.433Z,2.30
2023-12-30T06:59:33.435Z,1.98
2023-12-30T07:00:33.395Z,1.67
2023-12-30T07:01:33.399Z,1.94
2023-12-30T07:02:33.369Z,1.76
2023-12-30T07:03:33.403Z,1.89
2023-12-30T07:04:33.448Z,1.81
2023-12-30T07:05:33.411Z,2.29
2023-12-30T07:06:33.328Z,1.78
2023-12-30T07:07:33.411Z,2.31
2023-12-30T07:08:33.334Z,1.89
2023-12-30T07:09:33.325Z,1.95
2023-12-30T07:10:33.425Z,2.08
2023-12-30T07:11:33.299Z,1.99
2023-12-30T07:12:33.296Z,2.40
2023-12-30T07:13:33.362Z,1.99
2023-12-30T07:14:33.424Z,1.65
2023-12-30T07:15:33.277Z,1.90
2023-12-30T07:16:33.317Z,2.17
2023-12-30T07:17:33.295Z,2.08
2023-12-30T07:18:33.311Z,2.13
2023-12-30T07:19:33.401Z,1.88
2023-12-30T07:20:33.243Z,1.67
2023-12-30T07:21:33.216Z,2.20
2023-12-30T07:22:33.289Z,1.78
2023-12-30T07:23:33.254Z,1.75
2023-12-30T07:24:33.265Z,1.98
2023-12-30T07:25:33.416Z,2.00
2023-12-30T07:26:33.291Z,2.45
2023-12-30T07:27:33.319Z,1.93
2023-12-30T07:28:33.407Z,1.90
2023-12-30T07:29:33.340Z,2.38
2023-12-30T07:30:33.374Z,1.83
2023-12-30T07:31:33.363Z,1.89
2023-12-30T07:32:33.482Z,2.14
2023-12-30T07:33:33.431Z,2.25
2023-12-30T07:34:33.408Z,1.76
2023-12-30T07:35:33.373Z,2.14
2023-12-30T07:36:33.439Z,2.12
2023-12-30T07:37:33.446Z,1.89
2023-12-30T07:38:33.416Z,2.13
2023-12-30T07:39:33.444Z,2.20
2023-12-30T07:40:33.560Z,1.83
2023-12-30T07:41:33.478Z,1.88
2023-12-30T07:42:33.499Z,2.22
2023-12-30T07:43:33.576Z,2.11
2023-12-30T07:44:33.507Z,2.02
2023-12-30T07:45:33.520Z,1.92
2023-12-30T07:46:33.670Z,2.16
2023-12-30T07:47:33.548Z,1.81
2023-12-30T07:48:33.586Z,1.79
2023-12-30T07:49:33.693Z,2.06
2023-12-30T07:50:33.571Z,2.19
2023-12-30T07:51:33.614Z,1.91
2023-12-30T07:52:33.662Z,2.11
2023-12-30T07:53:33.645Z,2.31
2023-12-30T07:54:33.648Z,1.88
2023-12-30T07:55:33.670Z,1.99
2023-12-30T07:56:33.661Z,1.83
2023-12-30T07:57:33.678Z,2.53
2023-12-30T07:58:33.761Z,1.62
2023-12-30T07:59:33.690Z,2.13
2023-12-30T08:00:33.741Z,2.12
2023-12-30T08:01:33.782Z,1.85
2023-12-30T08:02:33.718Z,2.04
2023-12-30T08:03:33.747Z,1.99
2023-12-30T08:04:33.806Z,1.90
2023-12-30T08:05:33.823Z,2.01
2023-12-30T08:06:33.747Z,2.17
2023-12-30T08:07:33.816Z,1.59
2023-12-30T08:08:33.773Z,2.23
2023-12-30T08:09:33.785Z,1.94
2023-12-30T08:10:33.831Z,1.87
2023-12-30T08:11:39.711Z,2.02
2023-12-30T08:12:34.803Z,1.90
2023-12-30T08:13:33.819Z,1.95
2023-12-30T08:14:33.781Z,2.10
2023-12-30T08:15:33.815Z,2.29
2023-12-30T08:16:33.815Z,2.01
2023-12-30T08:17:33.881Z,2.01
2023-12-30T08:18:33.844Z,2.08
2023-12-30T08:19:33.842Z,2.42
2023-12-30T08:20:33.748Z,2.12
2023-12-30T08:21:33.715Z,2.11
2023-12-30T08:22:33.806Z,2.24
2023-12-30T08:23:33.714Z,2.25
2023-12-30T08:24:33.749Z,2.21
2023-12-30T08:25:33.779Z,2.30
2023-12-30T08:26:33.708Z,2.10
2023-12-30T08:27:33.732Z,2.03
2023-12-30T08:28:33.755Z,2.20
2023-12-30T08:29:33.701Z,2.23
2023-12-30T08:30:33.701Z,2.52
2023-12-30T08:31:33.718Z,2.38
2023-12-30T08:32:33.723Z,2.24
2023-12-30T08:33:33.735Z,2.21
2023-12-30T08:34:33.763Z,2.09
2023-12-30T08:35:33.681Z,2.27
2023-12-30T08:36:33.670Z,2.48
2023-12-30T08:37:33.720Z,2.19
2023-12-30T08:38:33.675Z,2.17
2023-12-30T08:39:33.686Z,2.05
2023-12-30T08:40:36.235Z,2.71
2023-12-30T08:41:33.661Z,2.22
2023-12-30T08:42:33.667Z,2.27
2023-12-30T08:43:33.709Z,2.12
2023-12-30T08:44:33.725Z,2.16
2023-12-30T08:45:33.664Z,2.40
2023-12-30T08:46:33.759Z,2.31
2023-12-30T08:47:33.696Z,2.10
2023-12-30T08:48:33.736Z,2.06
2023-12-30T08:49:33.772Z,2.09
2023-12-30T08:50:33.732Z,2.24
2023-12-30T08:51:33.709Z,2.29
2023-12-30T08:52:33.710Z,2.43
2023-12-30T08:53:33.673Z,2.04
2023-12-30T08:54:33.666Z,2.07
2023-12-30T08:55:33.674Z,2.18
2023-12-30T08:56:33.686Z,2.54
2023-12-30T08:57:33.680Z,1.97
2023-12-30T08:58:33.765Z,2.55
2023-12-30T08:59:33.648Z,2.65
2023-12-30T09:00:33.682Z,2.67
2023-12-30T09:01:33.731Z,2.26
2023-12-30T09:02:33.651Z,2.27
2023-12-30T09:03:33.668Z,2.04
2023-12-30T09:04:33.706Z,2.36
2023-12-30T09:05:33.837Z,2.51
2023-12-30T09:06:33.618Z,2.47
2023-12-30T09:07:33.687Z,2.58
2023-12-30T09:08:33.618Z,2.40
2023-12-30T09:09:33.607Z,2.55
2023-12-30T09:10:33.731Z,2.58
2023-12-30T09:11:33.596Z,2.35
2023-12-30T09:12:33.604Z,2.47
2023-12-30T09:13:33.604Z,2.51
2023-12-30T09:14:33.587Z,2.51
2023-12-30T09:15:33.560Z,2.58
2023-12-30T09:16:33.665Z,2.40
2023-12-30T09:17:33.607Z,2.81
2023-12-30T09:18:33.607Z,2.78
2023-12-30T09:19:33.613Z,2.45
2023-12-30T09:20:33.543Z,2.35
2023-12-30T09:21:33.580Z,2.56
2023-12-30T09:22:33.628Z,2.44
2023-12-30T09:23:33.549Z,2.90
2023-12-30T09:24:33.621Z,2.65
2023-12-30T09:25:33.632Z,2.36
2023-12-30T09:26:33.550Z,2.66
2023-12-30T09:27:33.542Z,2.97
2023-12-30T09:28:33.707Z,2.53
2023-12-30T09:29:33.518Z,2.66
2023-12-30T09:30:33.637Z,2.68
2023-12-30T09:31:33.539Z,2.59
2023-12-30T09:32:33.532Z,2.29
2023-12-30T09:33:33.593Z,2.68
2023-12-30T09:34:41.356Z,3.10
2023-12-30T09:35:34.565Z,2.78
2023-12-30T09:36:33.580Z,2.59
2023-12-30T09:37:33.578Z,2.73
2023-12-30T09:38:33.481Z,2.61
2023-12-30T09:39:33.499Z,3.00
2023-12-30T09:40:33.539Z,2.81
2023-12-30T09:41:33.450Z,2.78
2023-12-30T09:42:33.472Z,2.68
2023-12-30T09:43:33.540Z,2.64
2023-12-30T09:44:33.611Z,2.93
2023-12-30T09:45:33.662Z,2.86
2023-12-30T09:46:33.764Z,2.85
2023-12-30T09:47:33.829Z,2.80
2023-12-30T09:48:33.951Z,2.65
2023-12-30T09:49:33.956Z,2.88
2023-12-30T09:50:33.986Z,2.80
2023-12-30T09:51:34.037Z,2.50
2023-12-30T09:52:34.144Z,2.91
2023-12-30T09:53:34.150Z,2.85
2023-12-30T09:54:42.913Z,2.72
2023-12-30T09:55:34.251Z,3.16
2023-12-30T09:56:34.215Z,2.51
2023-12-30T09:57:34.201Z,3.13
2023-12-30T09:58:34.284Z,2.79
2023-12-30T09:59:34.199Z,2.87
2023-12-30T10:00:34.174Z,3.22
2023-12-30T10:01:35.170Z,3.47
2023-12-30T10:02:34.161Z,3.17
2023-12-30T10:03:34.226Z,2.78
2023-12-30T10:04:34.266Z,3.22
2023-12-30T10:05:34.255Z,3.19
2023-12-30T10:06:34.124Z,2.91
2023-12-30T10:07:34.131Z,3.13
2023-12-30T10:08:34.112Z,2.87
2023-12-30T10:09:34.121Z,3.15
2023-12-30T10:10:34.139Z,3.00
2023-12-30T10:11:34.100Z,3.21
2023-12-30T10:12:34.117Z,3.18
2023-12-30T10:13:34.123Z,3.33
2023-12-30T10:14:34.088Z,3.22
2023-12-30T10:15:34.084Z,3.28
2023-12-30T10:16:34.171Z,3.03
2023-12-30T10:17:34.124Z,3.71
2023-12-30T10:18:34.181Z,3.59
2023-12-30T10:19:34.159Z,3.60
2023-12-30T10:20:34.058Z,3.78
2023-12-30T10:21:34.053Z,3.24
2023-12-30T10:22:34.064Z,3.49
2023-12-30T10:23:34.055Z,3.37
2023-12-30T10:24:34.022Z,3.09
2023-12-30T10:25:34.126Z,3.09
2023-12-30T10:26:34.002Z,3.39
2023-12-30T10:27:33.997Z,3.65
2023-12-30T10:28:34.072Z,3.07
2023-12-30T10:29:43.268Z,3.44
2023-12-30T10:30:35.036Z,3.57
2023-12-30T10:31:34.026Z,3.48
2023-12-30T10:32:34.039Z,3.43
2023-12-30T10:33:34.026Z,3.38
2023-12-30T10:34:33.991Z,3.82
2023-12-30T10:35:33.943Z,3.42
2023-12-30T10:36:33.949Z,3.31
2023-12-30T10:37:33.980Z,3.48
2023-12-30T10:38:33.967Z,2.99
2023-12-30T10:39:33.990Z,3.06
2023-12-30T10:40:34.062Z,3.61
2023-12-30T10:41:34.096Z,3.23
2023-12-30T10:42:34.168Z,3.08
2023-12-30T10:43:34.279Z,3.16
2023-12-30T10:44:34.240Z,3.49
2023-12-30T10:45:34.302Z,3.00
2023-12-30T10:46:34.382Z,3.57
2023-12-30T10:47:34.430Z,3.23
2023-12-30T10:48:34.469Z,3.44
2023-12-30T10:49:34.594Z,3.28
2023-12-30T10:50:34.627Z,3.96
2023-12-30T10:51:34.496Z,3.20
2023-12-30T10:52:34.523Z,3.44
2023-12-30T10:53:34.477Z,3.26
2023-12-30T10:54:34.474Z,3.38
2023-12-30T10:55:34.519Z,3.32
2023-12-30T10:56:34.544Z,3.20
2023-12-30T10:57:34.458Z,3.55
2023-12-30T10:58:34.477Z,3.14
2023-12-30T10:59:34.422Z,3.25
2023-12-30T11:00:34.392Z,3.38
2023-12-30T11:01:34.447Z,3.42
2023-12-30T11:02:34.398Z,3.60
2023-12-30T11:03:34.358Z,3.34
2023-12-30T11:04:34.401Z,3.46
2023-12-30T11:05:34.419Z,3.30
2023-12-30T11:06:34.412Z,3.64
2023-12-30T11:07:34.412Z,3.41
2023-12-30T11:08:34.308Z,3.53
2023-12-30T11:09:34.301Z,3.62
2023-12-30T11:10:34.417Z,3.50
2023-12-30T11:11:34.340Z,3.31
2023-12-30T11:12:34.474Z,3.77
2023-12-30T11:13:34.448Z,3.41
2023-12-30T11:14:34.475Z,3.66
2023-12-30T11:15:34.531Z,3.56
2023-12-30T11:16:34.586Z,3.32
2023-12-30T11:17:34.614Z,3.72
2023-12-30T11:18:34.683Z,3.40
2023-12-30T11:19:34.837Z,3.81
2023-12-30T11:20:34.719Z,3.69
2023-12-30T11:21:34.787Z,3.83
2023-12-30T11:22:34.783Z,4.02
2023-12-30T11:23:34.814Z,3.43
2023-12-30T11:24:34.895Z,3.59
2023-12-30T11:25:34.993Z,3.72
2023-12-30T11:26:34.919Z,3.17
2023-12-30T11:27:34.975Z,3.43
2023-12-30T11:28:35.129Z,3.97
2023-12-30T11:29:35.076Z,3.84
2023-12-30T11:30:35.154Z,4.02
2023-12-30T11:31:35.181Z,3.64
2023-12-30T11:32:35.280Z,3.95
2023-12-30T11:33:35.322Z,3.64
2023-12-30T11:34:35.580Z,3.71
2023-12-30T11:35:35.340Z,3.83
2023-12-30T11:36:35.369Z,4.33
2023-12-30T11:37:35.448Z,3.85
2023-12-30T11:38:35.478Z,4.12
2023-12-30T11:39:35.528Z,4.00
2023-12-30T11:40:35.566Z,3.52
2023-12-30T11:41:35.586Z,4.04
2023-12-30T11:42:42.389Z,3.68
2023-12-30T11:43:36.687Z,3.43
2023-12-30T11:44:35.797Z,3.90
2023-12-30T11:45:35.618Z,4.19
2023-12-30T11:46:35.684Z,3.88
2023-12-30T11:47:35.717Z,4.06
2023-12-30T11:48:35.706Z,3.93
2023-12-30T11:49:35.658Z,3.96
2023-12-30T11:50:35.594Z,3.60
2023-12-30T11:51:35.592Z,3.93
2023-12-30T11:52:35.600Z,3.95
2023-12-30T11:53:35.569Z,3.46
2023-12-30T11:54:35.583Z,3.52
2023-12-30T11:55:35.685Z,3.93
2023-12-30T11:56:35.539Z,3.69
2023-12-30T11:57:35.551Z,3.87
2023-12-30T11:58:35.535Z,4.05
2023-12-30T11:59:35.508Z,4.01
2023-12-30T12:00:35.650Z,3.97
2023-12-30T12:01:35.568Z,3.75
2023-12-30T12:02:35.478Z,4.02
2023-12-30T12:03:35.475Z,3.95
2023-12-30T12:04:35.545Z,4.15
2023-12-30T12:05:35.496Z,3.89
2023-12-30T12:06:35.516Z,3.77
2023-12-30T12:07:35.525Z,4.06
2023-12-30T12:08:35.529Z,3.97
2023-12-30T12:09:35.604Z,3.75
2023-12-30T12:10:35.854Z,4.60
2023-12-30T12:11:35.654Z,4.16
2023-12-30T12:12:35.708Z,3.82
2023-12-30T12:13:35.748Z,3.99
2023-12-30T12:14:35.824Z,4.31
2023-12-30T12:15:35.840Z,4.13
2023-12-30T12:16:35.995Z,3.77
2023-12-30T12:17:36.148Z,3.70
2023-12-30T12:18:36.087Z,4.13
2023-12-30T12:19:36.043Z,3.66
2023-12-30T12:20:36.053Z,4.54
2023-12-30T12:21:36.099Z,4.19
2023-12-30T12:22:36.299Z,4.12
2023-12-30T12:23:36.197Z,3.76
2023-12-30T12:24:36.272Z,4.13
2023-12-30T12:25:36.289Z,4.06
2023-12-30T12:26:36.208Z,3.89
2023-12-30T12:27:36.209Z,3.98
2023-12-30T12:28:36.219Z,4.33
2023-12-30T12:29:36.244Z,4.48
2023-12-30T12:30:36.165Z,4.02
2023-12-30T12:31:36.186Z,4.03
2023-12-30T12:32:36.248Z,3.94
2023-12-30T12:33:36.293Z,4.42
2023-12-30T12:34:36.217Z,4.27
2023-12-30T12:35:36.223Z,4.12
2023-12-30T12:36:36.307Z,4.29
2023-12-30T12:37:36.509Z,4.01
2023-12-30T12:38:36.365Z,4.05
2023-12-30T12:39:37.049Z,4.27
2023-12-30T12:40:36.509Z,4.40
2023-12-30T12:41:36.568Z,4.80
2023-12-30T12:42:36.511Z,4.58
2023-12-30T12:43:36.460Z,4.12
2023-12-30T12:44:47.998Z,4.25
2023-12-30T12:45:36.635Z,3.79
2023-12-30T12:46:36.852Z,3.95
2023-12-30T12:47:39.225Z,3.98
2023-12-30T12:48:37.038Z,4.23
2023-12-30T12:49:38.168Z,4.76
2023-12-30T12:50:36.978Z,4.30
2023-12-30T12:51:37.026Z,4.53
2023-12-30T12:52:37.177Z,4.32
2023-12-30T12:53:37.103Z,4.56
2023-12-30T12:54:43.405Z,4.59
2023-12-30T12:55:37.188Z,4.53
2023-12-30T12:56:37.142Z,4.39
2023-12-30T12:57:37.107Z,4.78
2023-12-30T12:58:37.122Z,4.52
2023-12-30T12:59:37.119Z,4.15
2023-12-30T13:00:37.100Z,4.38
2023-12-30T13:01:37.133Z,4.56
2023-12-30T13:02:37.073Z,4.18
2023-12-30T13:03:37.120Z,4.72
2023-12-30T13:04:37.057Z,4.50
2023-12-30T13:05:37.394Z,4.17
2023-12-30T13:06:37.020Z,4.66
2023-12-30T13:07:37.081Z,4.47
2023-12-30T13:08:37.341Z,4.53
2023-12-30T13:09:36.995Z,4.58
2023-12-30T13:10:37.031Z,4.17
2023-12-30T13:11:36.988Z,4.62
2023-12-30T13:12:36.950Z,4.60
2023-12-30T13:13:40.678Z,4.94
2023-12-30T13:14:37.222Z,5.10
2023-12-30T13:15:37.225Z,4.60
2023-12-30T13:16:37.420Z,4.44
2023-12-30T13:17:37.266Z,4.63
2023-12-30T13:18:37.333Z,4.24
2023-12-30T13:19:37.385Z,4.19
2023-12-30T13:20:37.233Z,4.96
2023-12-30T13:21:37.240Z,4.00
2023-12-30T13:22:37.320Z,4.76
2023-12-30T13:23:37.226Z,4.64
2023-12-30T13:24:37.233Z,4.57
2023-12-30T13:25:37.330Z,4.17
2023-12-30T13:26:37.354Z,4.35
2023-12-30T13:27:37.286Z,4.57
2023-12-30T13:28:37.337Z,4.54
2023-12-30T13:29:37.371Z,3.78
2023-12-30T13:30:37.484Z,4.92
2023-12-30T13:31:37.464Z,4.77
2023-12-30T13:32:37.658Z,4.55
2023-12-30T13:33:37.618Z,5.10
2023-12-30T13:34:37.697Z,4.49
2023-12-30T13:35:37.661Z,4.85
2023-12-30T13:36:37.707Z,4.78
2023-12-30T13:37:37.853Z,4.66
2023-12-30T13:38:37.801Z,4.57
2023-12-30T13:39:37.919Z,5.13
2023-12-30T13:40:38.012Z,4.99
2023-12-30T13:41:37.971Z,4.73
2023-12-30T13:42:39.093Z,4.64
2023-12-30T13:43:38.065Z,4.85
2023-12-30T13:44:38.105Z,5.14
2023-12-30T13:45:38.162Z,4.61
2023-12-30T13:46:38.352Z,4.72
2023-12-30T13:47:38.292Z,5.28
2023-12-30T13:48:38.373Z,5.16
2023-12-30T13:49:38.426Z,4.69
2023-12-30T13:50:38.429Z,4.75
2023-12-30T13:51:38.519Z,4.74